sensor_id;sensor_type;location;lat;lon;timestamp;P1;durP1;ratioP1;P2;durP2;ratioP2
36651;SDS011;53334;51.976;20.144;2023-11-21T00:01:20;16.65;;;12.85;;
36651;SDS011;53334;51.976;20.144;2023-11-21T00:03:53;17.50;;;13.68;;
36651;SDS011;53334;51.976;20.144;2023-11-21T00:06:27;16.95;;;13.18;;
36651;SDS011;53334;51.976;20.144;2023-11-21T00:09:02;20.55;;;13.38;;
36651;SDS011;53334;51.976;20.144;2023-11-21T00:11:36;16.80;;;12.80;;
36651;SDS011;53334;51.976;20.144;2023-11-21T00:14:10;18.63;;;12.57;;
36651;SDS011;53334;51.976;20.144;2023-11-21T00:16:43;14.30;;;12.27;;
36651;SDS011;53334;51.976;20.144;2023-11-21T00:19:16;13.85;;;12.10;;
36651;SDS011;53334;51.976;20.144;2023-11-21T00:21:50;15.25;;;12.40;;
36651;SDS011;53334;51.976;20.144;2023-11-21T00:24:24;12.68;;;10.63;;
36651;SDS011;53334;51.976;20.144;2023-11-21T00:26:57;13.55;;;11.63;;
36651;SDS011;53334;51.976;20.144;2023-11-21T00:29:30;15.32;;;12.60;;
36651;SDS011;53334;51.976;20.144;2023-11-21T00:32:04;13.27;;;11.73;;
36651;SDS011;53334;51.976;20.144;2023-11-21T00:34:38;14.40;;;11.55;;
36651;SDS011;53334;51.976;20.144;2023-11-21T00:37:11;14.23;;;10.82;;
36651;SDS011;53334;51.976;20.144;2023-11-21T00:39:47;14.32;;;11.50;;
36651;SDS011;53334;51.976;20.144;2023-11-21T00:42:20;13.80;;;10.80;;
36651;SDS011;53334;51.976;20.144;2023-11-21T00:44:55;12.32;;;10.90;;
36651;SDS011;53334;51.976;20.144;2023-11-21T00:47:28;13.63;;;10.98;;
36651;SDS011;53334;51.976;20.144;2023-11-21T00:50:02;14.52;;;11.43;;
36651;SDS011;53334;51.976;20.144;2023-11-21T00:52:37;13.77;;;11.25;;
36651;SDS011;53334;51.976;20.144;2023-11-21T00:55:12;11.77;;;9.77;;
36651;SDS011;53334;51.976;20.144;2023-11-21T00:57:45;13.40;;;10.73;;
36651;SDS011;53334;51.976;20.144;2023-11-21T01:00:18;12.75;;;10.77;;
36651;SDS011;53334;51.976;20.144;2023-11-21T01:02:51;12.25;;;10.10;;
36651;SDS011;53334;51.976;20.144;2023-11-21T01:05:24;12.23;;;10.93;;
36651;SDS011;53334;51.976;20.144;2023-11-21T01:07:58;12.70;;;11.07;;
36651;SDS011;53334;51.976;20.144;2023-11-21T01:10:32;13.70;;;11.40;;
36651;SDS011;53334;51.976;20.144;2023-11-21T01:13:06;12.68;;;10.13;;
36651;SDS011;53334;51.976;20.144;2023-11-21T01:15:39;14.27;;;10.07;;
36651;SDS011;53334;51.976;20.144;2023-11-21T01:18:12;12.48;;;9.48;;
36651;SDS011;53334;51.976;20.144;2023-11-21T01:20:46;15.40;;;9.98;;
36651;SDS011;53334;51.976;20.144;2023-11-21T01:23:19;12.68;;;10.68;;
36651;SDS011;53334;51.976;20.144;2023-11-21T01:25:55;12.27;;;9.73;;
36651;SDS011;53334;51.976;20.144;2023-11-21T01:28:29;14.07;;;11.55;;
36651;SDS011;53334;51.976;20.144;2023-11-21T01:31:02;12.25;;;10.90;;
36651;SDS011;53334;51.976;20.144;2023-11-21T01:33:35;11.63;;;10.13;;
36651;SDS011;53334;51.976;20.144;2023-11-21T01:36:09;11.65;;;9.48;;
36651;SDS011;53334;51.976;20.144;2023-11-21T01:38:42;12.20;;;9.40;;
36651;SDS011;53334;51.976;20.144;2023-11-21T01:41:17;11.95;;;10.10;;
36651;SDS011;53334;51.976;20.144;2023-11-21T01:43:51;12.50;;;10.10;;
36651;SDS011;53334;51.976;20.144;2023-11-21T01:46:25;13.27;;;9.88;;
36651;SDS011;53334;51.976;20.144;2023-11-21T01:48:58;12.77;;;10.07;;
36651;SDS011;53334;51.976;20.144;2023-11-21T01:51:32;12.60;;;9.50;;
36651;SDS011;53334;51.976;20.144;2023-11-21T01:54:06;11.18;;;9.98;;
36651;SDS011;53334;51.976;20.144;2023-11-21T01:56:50;12.20;;;9.80;;
36651;SDS011;53334;51.976;20.144;2023-11-21T01:59:23;12.73;;;9.73;;
36651;SDS011;53334;51.976;20.144;2023-11-21T02:01:58;15.95;;;10.05;;
36651;SDS011;53334;51.976;20.144;2023-11-21T02:04:31;14.55;;;9.35;;
36651;SDS011;53334;51.976;20.144;2023-11-21T02:07:06;11.43;;;9.77;;
36651;SDS011;53334;51.976;20.144;2023-11-21T02:09:39;9.80;;;8.82;;
36651;SDS011;53334;51.976;20.144;2023-11-21T02:12:15;12.18;;;9.93;;
36651;SDS011;53334;51.976;20.144;2023-11-21T02:14:49;10.20;;;9.02;;
36651;SDS011;53334;51.976;20.144;2023-11-21T02:17:22;15.30;;;9.90;;
36651;SDS011;53334;51.976;20.144;2023-11-21T02:19:55;13.25;;;8.93;;
36651;SDS011;53334;51.976;20.144;2023-11-21T02:22:29;11.07;;;9.88;;
36651;SDS011;53334;51.976;20.144;2023-11-21T02:25:08;10.38;;;9.27;;
36651;SDS011;53334;51.976;20.144;2023-11-21T02:27:42;10.35;;;9.20;;
36651;SDS011;53334;51.976;20.144;2023-11-21T02:30:19;12.05;;;9.13;;
36651;SDS011;53334;51.976;20.144;2023-11-21T02:32:53;10.63;;;9.43;;
36651;SDS011;53334;51.976;20.144;2023-11-21T02:35:29;10.55;;;9.05;;
36651;SDS011;53334;51.976;20.144;2023-11-21T02:38:04;13.00;;;9.15;;
36651;SDS011;53334;51.976;20.144;2023-11-21T02:40:39;11.18;;;8.95;;
36651;SDS011;53334;51.976;20.144;2023-11-21T02:43:12;11.63;;;9.80;;
36651;SDS011;53334;51.976;20.144;2023-11-21T02:45:45;12.02;;;9.65;;
36651;SDS011;53334;51.976;20.144;2023-11-21T02:48:18;9.52;;;8.23;;
36651;SDS011;53334;51.976;20.144;2023-11-21T02:50:51;10.57;;;9.43;;
36651;SDS011;53334;51.976;20.144;2023-11-21T02:53:25;10.38;;;8.73;;
36651;SDS011;53334;51.976;20.144;2023-11-21T02:55:59;12.23;;;8.48;;
36651;SDS011;53334;51.976;20.144;2023-11-21T02:58:32;10.88;;;8.52;;
36651;SDS011;53334;51.976;20.144;2023-11-21T03:01:05;9.77;;;8.70;;
36651;SDS011;53334;51.976;20.144;2023-11-21T03:03:39;10.15;;;8.63;;
36651;SDS011;53334;51.976;20.144;2023-11-21T03:06:13;10.10;;;8.40;;
36651;SDS011;53334;51.976;20.144;2023-11-21T03:08:47;9.57;;;8.27;;
36651;SDS011;53334;51.976;20.144;2023-11-21T03:11:21;12.65;;;10.13;;
36651;SDS011;53334;51.976;20.144;2023-11-21T03:13:54;10.38;;;8.70;;
36651;SDS011;53334;51.976;20.144;2023-11-21T03:16:28;9.70;;;8.55;;
36651;SDS011;53334;51.976;20.144;2023-11-21T03:19:02;8.98;;;7.78;;
36651;SDS011;53334;51.976;20.144;2023-11-21T03:21:35;10.75;;;8.82;;
36651;SDS011;53334;51.976;20.144;2023-11-21T03:24:08;9.70;;;8.27;;
36651;SDS011;53334;51.976;20.144;2023-11-21T03:26:45;10.07;;;7.35;;
36651;SDS011;53334;51.976;20.144;2023-11-21T03:29:19;9.75;;;8.20;;
36651;SDS011;53334;51.976;20.144;2023-11-21T03:31:52;9.73;;;8.25;;
36651;SDS011;53334;51.976;20.144;2023-11-21T03:34:26;10.45;;;7.80;;
36651;SDS011;53334;51.976;20.144;2023-11-21T03:37:00;10.88;;;8.20;;
36651;SDS011;53334;51.976;20.144;2023-11-21T03:39:33;11.25;;;7.60;;
36651;SDS011;53334;51.976;20.144;2023-11-21T03:42:08;9.35;;;7.85;;
36651;SDS011;53334;51.976;20.144;2023-11-21T03:44:41;8.90;;;8.00;;
36651;SDS011;53334;51.976;20.144;2023-11-21T03:47:14;11.95;;;8.27;;
36651;SDS011;53334;51.976;20.144;2023-11-21T03:49:47;8.85;;;7.70;;
36651;SDS011;53334;51.976;20.144;2023-11-21T03:52:21;10.00;;;7.47;;
36651;SDS011;53334;51.976;20.144;2023-11-21T03:55:18;9.50;;;8.00;;
36651;SDS011;53334;51.976;20.144;2023-11-21T03:57:52;8.65;;;7.75;;
36651;SDS011;53334;51.976;20.144;2023-11-21T04:00:26;8.23;;;7.05;;
36651;SDS011;53334;51.976;20.144;2023-11-21T04:03:00;8.52;;;7.05;;
36651;SDS011;53334;51.976;20.144;2023-11-21T04:05:33;9.20;;;7.35;;
36651;SDS011;53334;51.976;20.144;2023-11-21T04:08:06;8.52;;;7.45;;
36651;SDS011;53334;51.976;20.144;2023-11-21T04:10:40;10.85;;;7.90;;
36651;SDS011;53334;51.976;20.144;2023-11-21T04:13:14;9.38;;;7.82;;
36651;SDS011;53334;51.976;20.144;2023-11-21T04:15:48;8.60;;;7.07;;
36651;SDS011;53334;51.976;20.144;2023-11-21T04:18:21;10.95;;;7.18;;
36651;SDS011;53334;51.976;20.144;2023-11-21T04:20:54;10.55;;;8.07;;
36651;SDS011;53334;51.976;20.144;2023-11-21T04:23:28;9.50;;;7.90;;
36651;SDS011;53334;51.976;20.144;2023-11-21T04:26:03;7.78;;;6.97;;
36651;SDS011;53334;51.976;20.144;2023-11-21T04:28:37;8.52;;;7.43;;
36651;SDS011;53334;51.976;20.144;2023-11-21T04:31:10;8.10;;;6.80;;
36651;SDS011;53334;51.976;20.144;2023-11-21T04:33:43;8.15;;;7.18;;
36651;SDS011;53334;51.976;20.144;2023-11-21T04:36:16;8.57;;;7.03;;
36651;SDS011;53334;51.976;20.144;2023-11-21T04:38:50;8.02;;;6.60;;
36651;SDS011;53334;51.976;20.144;2023-11-21T04:41:23;8.98;;;8.02;;
36651;SDS011;53334;51.976;20.144;2023-11-21T04:43:57;7.47;;;6.63;;
36651;SDS011;53334;51.976;20.144;2023-11-21T04:46:32;7.80;;;6.72;;
36651;SDS011;53334;51.976;20.144;2023-11-21T04:49:05;8.05;;;6.82;;
36651;SDS011;53334;51.976;20.144;2023-11-21T04:51:38;7.40;;;6.65;;
36651;SDS011;53334;51.976;20.144;2023-11-21T04:54:12;8.05;;;6.57;;
36651;SDS011;53334;51.976;20.144;2023-11-21T04:56:45;10.93;;;6.68;;
36651;SDS011;53334;51.976;20.144;2023-11-21T04:59:19;7.97;;;6.97;;
36651;SDS011;53334;51.976;20.144;2023-11-21T05:01:56;7.95;;;7.07;;
36651;SDS011;53334;51.976;20.144;2023-11-21T05:04:29;8.07;;;6.40;;
36651;SDS011;53334;51.976;20.144;2023-11-21T05:07:02;7.82;;;6.63;;
36651;SDS011;53334;51.976;20.144;2023-11-21T05:09:35;7.22;;;6.32;;
36651;SDS011;53334;51.976;20.144;2023-11-21T05:12:09;24.42;;;7.35;;
36651;SDS011;53334;51.976;20.144;2023-11-21T05:14:44;8.20;;;6.47;;
36651;SDS011;53334;51.976;20.144;2023-11-21T05:17:18;7.68;;;6.28;;
36651;SDS011;53334;51.976;20.144;2023-11-21T05:19:51;11.60;;;6.03;;
36651;SDS011;53334;51.976;20.144;2023-11-21T05:22:24;8.40;;;5.85;;
36651;SDS011;53334;51.976;20.144;2023-11-21T05:24:57;7.78;;;5.78;;
36651;SDS011;53334;51.976;20.144;2023-11-21T05:27:30;8.23;;;5.82;;
36651;SDS011;53334;51.976;20.144;2023-11-21T05:30:05;7.47;;;6.10;;
36651;SDS011;53334;51.976;20.144;2023-11-21T05:32:41;9.40;;;5.53;;
36651;SDS011;53334;51.976;20.144;2023-11-21T05:35:15;15.00;;;6.25;;
36651;SDS011;53334;51.976;20.144;2023-11-21T05:37:49;10.18;;;5.60;;
36651;SDS011;53334;51.976;20.144;2023-11-21T05:40:22;11.07;;;5.70;;
36651;SDS011;53334;51.976;20.144;2023-11-21T05:42:57;10.13;;;6.07;;
36651;SDS011;53334;51.976;20.144;2023-11-21T05:45:32;6.68;;;6.05;;
36651;SDS011;53334;51.976;20.144;2023-11-21T05:48:06;6.60;;;5.85;;
36651;SDS011;53334;51.976;20.144;2023-11-21T05:50:39;13.27;;;5.78;;
36651;SDS011;53334;51.976;20.144;2023-11-21T05:53:12;21.05;;;6.18;;
36651;SDS011;53334;51.976;20.144;2023-11-21T05:55:47;9.98;;;5.68;;
36651;SDS011;53334;51.976;20.144;2023-11-21T05:58:20;9.77;;;5.90;;
36651;SDS011;53334;51.976;20.144;2023-11-21T06:00:54;7.97;;;5.82;;
36651;SDS011;53334;51.976;20.144;2023-11-21T06:03:28;10.43;;;6.38;;
36651;SDS011;53334;51.976;20.144;2023-11-21T06:06:01;9.07;;;5.53;;
36651;SDS011;53334;51.976;20.144;2023-11-21T06:08:35;5.28;;;4.78;;
36651;SDS011;53334;51.976;20.144;2023-11-21T06:11:08;7.80;;;6.10;;
36651;SDS011;53334;51.976;20.144;2023-11-21T06:13:43;6.40;;;5.22;;
36651;SDS011;53334;51.976;20.144;2023-11-21T06:16:18;5.78;;;5.07;;
36651;SDS011;53334;51.976;20.144;2023-11-21T06:18:51;11.35;;;5.45;;
36651;SDS011;53334;51.976;20.144;2023-11-21T06:21:24;10.80;;;5.13;;
36651;SDS011;53334;51.976;20.144;2023-11-21T06:23:57;6.70;;;5.07;;
36651;SDS011;53334;51.976;20.144;2023-11-21T06:26:31;11.75;;;5.13;;
36651;SDS011;53334;51.976;20.144;2023-11-21T06:29:04;11.80;;;5.18;;
36651;SDS011;53334;51.976;20.144;2023-11-21T06:31:39;9.20;;;5.38;;
36651;SDS011;53334;51.976;20.144;2023-11-21T06:34:13;10.32;;;5.40;;
36651;SDS011;53334;51.976;20.144;2023-11-21T06:36:46;14.00;;;4.57;;
36651;SDS011;53334;51.976;20.144;2023-11-21T06:39:19;14.35;;;5.65;;
36651;SDS011;53334;51.976;20.144;2023-11-21T06:41:54;8.90;;;4.35;;
36651;SDS011;53334;51.976;20.144;2023-11-21T06:44:27;9.73;;;5.30;;
36651;SDS011;53334;51.976;20.144;2023-11-21T06:47:02;12.60;;;6.32;;
36651;SDS011;53334;51.976;20.144;2023-11-21T06:49:35;13.25;;;4.68;;
36651;SDS011;53334;51.976;20.144;2023-11-21T06:52:10;6.78;;;5.07;;
36651;SDS011;53334;51.976;20.144;2023-11-21T06:54:43;6.47;;;4.75;;
36651;SDS011;53334;51.976;20.144;2023-11-21T06:57:16;5.68;;;4.25;;
36651;SDS011;53334;51.976;20.144;2023-11-21T06:59:49;5.57;;;4.45;;
36651;SDS011;53334;51.976;20.144;2023-11-21T07:02:24;8.10;;;4.38;;
36651;SDS011;53334;51.976;20.144;2023-11-21T07:04:57;5.78;;;4.50;;
36651;SDS011;53334;51.976;20.144;2023-11-21T07:07:30;7.75;;;4.47;;
36651;SDS011;53334;51.976;20.144;2023-11-21T07:10:07;5.20;;;4.13;;
36651;SDS011;53334;51.976;20.144;2023-11-21T07:12:40;5.75;;;4.07;;
36651;SDS011;53334;51.976;20.144;2023-11-21T07:15:14;5.63;;;4.05;;
36651;SDS011;53334;51.976;20.144;2023-11-21T07:17:49;5.18;;;4.68;;
36651;SDS011;53334;51.976;20.144;2023-11-21T07:20:22;9.73;;;4.93;;
36651;SDS011;53334;51.976;20.144;2023-11-21T07:22:55;5.72;;;4.28;;
36651;SDS011;53334;51.976;20.144;2023-11-21T07:25:29;4.50;;;4.07;;
36651;SDS011;53334;51.976;20.144;2023-11-21T07:30:37;6.43;;;4.20;;
36651;SDS011;53334;51.976;20.144;2023-11-21T07:33:11;5.18;;;4.07;;
36651;SDS011;53334;51.976;20.144;2023-11-21T07:35:44;8.80;;;4.68;;
36651;SDS011;53334;51.976;20.144;2023-11-21T07:38:18;12.82;;;4.72;;
36651;SDS011;53334;51.976;20.144;2023-11-21T07:40:51;6.30;;;4.10;;
36651;SDS011;53334;51.976;20.144;2023-11-21T07:43:24;4.78;;;4.07;;
36651;SDS011;53334;51.976;20.144;2023-11-21T07:45:57;8.02;;;3.97;;
36651;SDS011;53334;51.976;20.144;2023-11-21T07:48:32;6.93;;;4.25;;
36651;SDS011;53334;51.976;20.144;2023-11-21T07:51:06;5.53;;;3.33;;
36651;SDS011;53334;51.976;20.144;2023-11-21T07:53:40;11.35;;;9.05;;
36651;SDS011;53334;51.976;20.144;2023-11-21T07:56:13;12.82;;;9.38;;
36651;SDS011;53334;51.976;20.144;2023-11-21T07:58:46;12.77;;;9.80;;
36651;SDS011;53334;51.976;20.144;2023-11-21T08:01:21;10.70;;;8.18;;
36651;SDS011;53334;51.976;20.144;2023-11-21T08:03:56;10.90;;;8.00;;
36651;SDS011;53334;51.976;20.144;2023-11-21T08:06:33;9.57;;;6.93;;
36651;SDS011;53334;51.976;20.144;2023-11-21T08:09:06;9.68;;;6.47;;
36651;SDS011;53334;51.976;20.144;2023-11-21T08:14:14;8.82;;;6.35;;
36651;SDS011;53334;51.976;20.144;2023-11-21T08:16:47;7.78;;;5.40;;
36651;SDS011;53334;51.976;20.144;2023-11-21T08:19:22;14.13;;;5.78;;
36651;SDS011;53334;51.976;20.144;2023-11-21T08:21:56;10.55;;;5.32;;
36651;SDS011;53334;51.976;20.144;2023-11-21T08:24:30;6.57;;;5.30;;
36651;SDS011;53334;51.976;20.144;2023-11-21T08:27:03;7.43;;;4.95;;
36651;SDS011;53334;51.976;20.144;2023-11-21T08:29:38;6.95;;;4.63;;
36651;SDS011;53334;51.976;20.144;2023-11-21T08:32:11;7.03;;;5.25;;
36651;SDS011;53334;51.976;20.144;2023-11-21T08:34:46;10.27;;;4.93;;
36651;SDS011;53334;51.976;20.144;2023-11-21T08:37:23;5.65;;;4.18;;
36651;SDS011;53334;51.976;20.144;2023-11-21T08:39:58;8.73;;;5.00;;
36651;SDS011;53334;51.976;20.144;2023-11-21T08:42:32;5.10;;;4.60;;
36651;SDS011;53334;51.976;20.144;2023-11-21T08:45:06;7.10;;;4.20;;
36651;SDS011;53334;51.976;20.144;2023-11-21T08:47:40;5.28;;;4.20;;
36651;SDS011;53334;51.976;20.144;2023-11-21T08:50:17;7.65;;;4.35;;
36651;SDS011;53334;51.976;20.144;2023-11-21T08:52:50;6.60;;;4.00;;
36651;SDS011;53334;51.976;20.144;2023-11-21T08:55:24;5.35;;;4.40;;
36651;SDS011;53334;51.976;20.144;2023-11-21T08:57:58;4.78;;;3.85;;
36651;SDS011;53334;51.976;20.144;2023-11-21T09:00:33;11.32;;;4.85;;
36651;SDS011;53334;51.976;20.144;2023-11-21T09:03:06;7.88;;;4.65;;
36651;SDS011;53334;51.976;20.144;2023-11-21T09:05:41;5.75;;;4.45;;
36651;SDS011;53334;51.976;20.144;2023-11-21T09:08:16;8.63;;;5.05;;
36651;SDS011;53334;51.976;20.144;2023-11-21T09:10:53;13.65;;;4.35;;
36651;SDS011;53334;51.976;20.144;2023-11-21T09:13:27;8.43;;;3.95;;
36651;SDS011;53334;51.976;20.144;2023-11-21T09:16:01;5.05;;;4.07;;
36651;SDS011;53334;51.976;20.144;2023-11-21T09:18:34;6.57;;;4.10;;
36651;SDS011;53334;51.976;20.144;2023-11-21T09:21:09;14.60;;;4.65;;
36651;SDS011;53334;51.976;20.144;2023-11-21T09:23:42;11.13;;;4.00;;
36651;SDS011;53334;51.976;20.144;2023-11-21T09:26:16;6.72;;;4.70;;
36651;SDS011;53334;51.976;20.144;2023-11-21T09:28:49;10.65;;;4.00;;
36651;SDS011;53334;51.976;20.144;2023-11-21T09:31:22;6.97;;;3.50;;
36651;SDS011;53334;51.976;20.144;2023-11-21T09:33:56;7.20;;;3.92;;
36651;SDS011;53334;51.976;20.144;2023-11-21T09:36:30;4.85;;;3.80;;
36651;SDS011;53334;51.976;20.144;2023-11-21T09:39:04;13.23;;;3.80;;
36651;SDS011;53334;51.976;20.144;2023-11-21T09:41:42;3.67;;;3.30;;
36651;SDS011;53334;51.976;20.144;2023-11-21T09:44:17;8.63;;;3.70;;
36651;SDS011;53334;51.976;20.144;2023-11-21T09:46:54;3.55;;;3.22;;
36651;SDS011;53334;51.976;20.144;2023-11-21T09:49:31;4.05;;;3.35;;
36651;SDS011;53334;51.976;20.144;2023-11-21T09:52:08;7.68;;;3.95;;
36651;SDS011;53334;51.976;20.144;2023-11-21T09:54:46;4.07;;;3.13;;
36651;SDS011;53334;51.976;20.144;2023-11-21T09:57:20;6.82;;;3.65;;
36651;SDS011;53334;51.976;20.144;2023-11-21T09:59:58;4.38;;;3.25;;
36651;SDS011;53334;51.976;20.144;2023-11-21T10:02:36;5.82;;;3.30;;
36651;SDS011;53334;51.976;20.144;2023-11-21T10:05:10;4.38;;;3.20;;
36651;SDS011;53334;51.976;20.144;2023-11-21T10:07:45;5.88;;;3.40;;
36651;SDS011;53334;51.976;20.144;2023-11-21T10:10:19;3.97;;;3.50;;
36651;SDS011;53334;51.976;20.144;2023-11-21T10:12:55;4.93;;;3.03;;
36651;SDS011;53334;51.976;20.144;2023-11-21T10:15:29;6.03;;;3.25;;
36651;SDS011;53334;51.976;20.144;2023-11-21T10:18:07;7.35;;;3.35;;
36651;SDS011;53334;51.976;20.144;2023-11-21T10:20:41;6.15;;;3.10;;
36651;SDS011;53334;51.976;20.144;2023-11-21T10:23:19;4.18;;;3.50;;
36651;SDS011;53334;51.976;20.144;2023-11-21T10:25:54;6.07;;;3.33;;
36651;SDS011;53334;51.976;20.144;2023-11-21T10:28:37;3.95;;;3.28;;
36651;SDS011;53334;51.976;20.144;2023-11-21T10:31:11;3.83;;;2.55;;
36651;SDS011;53334;51.976;20.144;2023-11-21T10:33:44;3.58;;;2.85;;
36651;SDS011;53334;51.976;20.144;2023-11-21T10:36:24;3.53;;;3.15;;
36651;SDS011;53334;51.976;20.144;2023-11-21T10:39:00;3.92;;;2.95;;
36651;SDS011;53334;51.976;20.144;2023-11-21T10:41:33;3.63;;;2.90;;
36651;SDS011;53334;51.976;20.144;2023-11-21T10:44:06;4.72;;;3.00;;
36651;SDS011;53334;51.976;20.144;2023-11-21T10:46:42;16.55;;;3.72;;
36651;SDS011;53334;51.976;20.144;2023-11-21T10:49:16;3.78;;;3.08;;
36651;SDS011;53334;51.976;20.144;2023-11-21T10:51:50;3.20;;;2.88;;
36651;SDS011;53334;51.976;20.144;2023-11-21T10:54:26;5.72;;;2.83;;
36651;SDS011;53334;51.976;20.144;2023-11-21T10:56:59;3.20;;;2.90;;
36651;SDS011;53334;51.976;20.144;2023-11-21T10:59:33;5.00;;;3.22;;
36651;SDS011;53334;51.976;20.144;2023-11-21T11:02:10;6.93;;;2.30;;
36651;SDS011;53334;51.976;20.144;2023-11-21T11:04:52;5.53;;;3.10;;
36651;SDS011;53334;51.976;20.144;2023-11-21T11:07:27;6.90;;;3.08;;
36651;SDS011;53334;51.976;20.144;2023-11-21T11:10:03;4.28;;;3.35;;
36651;SDS011;53334;51.976;20.144;2023-11-21T11:12:39;6.03;;;2.80;;
36651;SDS011;53334;51.976;20.144;2023-11-21T11:15:13;3.28;;;2.88;;
36651;SDS011;53334;51.976;20.144;2023-11-21T11:17:47;3.33;;;3.03;;
36651;SDS011;53334;51.976;20.144;2023-11-21T11:22:58;3.78;;;2.67;;
36651;SDS011;53334;51.976;20.144;2023-11-21T11:25:57;3.75;;;3.00;;
36651;SDS011;53334;51.976;20.144;2023-11-21T11:28:51;2.65;;;2.45;;
36651;SDS011;53334;51.976;20.144;2023-11-21T11:31:37;6.72;;;3.78;;
36651;SDS011;53334;51.976;20.144;2023-11-21T11:34:20;3.03;;;2.80;;
36651;SDS011;53334;51.976;20.144;2023-11-21T11:37:00;3.75;;;3.30;;
36651;SDS011;53334;51.976;20.144;2023-11-21T11:39:35;5.20;;;3.20;;
36651;SDS011;53334;51.976;20.144;2023-11-21T11:42:13;4.00;;;3.20;;
36651;SDS011;53334;51.976;20.144;2023-11-21T11:44:50;7.47;;;2.63;;
36651;SDS011;53334;51.976;20.144;2023-11-21T11:47:26;5.25;;;3.05;;
36651;SDS011;53334;51.976;20.144;2023-11-21T11:50:06;4.35;;;3.35;;
36651;SDS011;53334;51.976;20.144;2023-11-21T11:52:45;6.78;;;3.08;;
36651;SDS011;53334;51.976;20.144;2023-11-21T11:55:20;4.57;;;2.92;;
36651;SDS011;53334;51.976;20.144;2023-11-21T11:57:56;3.95;;;2.83;;
36651;SDS011;53334;51.976;20.144;2023-11-21T12:00:33;7.28;;;3.20;;
36651;SDS011;53334;51.976;20.144;2023-11-21T12:03:09;6.10;;;3.33;;
36651;SDS011;53334;51.976;20.144;2023-11-21T12:05:43;3.65;;;3.28;;
36651;SDS011;53334;51.976;20.144;2023-11-21T12:08:20;6.50;;;3.65;;
36651;SDS011;53334;51.976;20.144;2023-11-21T12:10:55;7.18;;;4.43;;
36651;SDS011;53334;51.976;20.144;2023-11-21T12:13:30;4.13;;;3.25;;
36651;SDS011;53334;51.976;20.144;2023-11-21T12:16:03;6.50;;;4.13;;
36651;SDS011;53334;51.976;20.144;2023-11-21T12:18:37;6.38;;;4.70;;
36651;SDS011;53334;51.976;20.144;2023-11-21T12:21:10;6.65;;;4.05;;
36651;SDS011;53334;51.976;20.144;2023-11-21T12:23:46;5.07;;;3.85;;
36651;SDS011;53334;51.976;20.144;2023-11-21T12:26:19;6.93;;;4.20;;
36651;SDS011;53334;51.976;20.144;2023-11-21T12:28:56;3.97;;;3.50;;
36651;SDS011;53334;51.976;20.144;2023-11-21T12:31:29;6.30;;;4.00;;
36651;SDS011;53334;51.976;20.144;2023-11-21T12:34:02;8.27;;;3.45;;
36651;SDS011;53334;51.976;20.144;2023-11-21T12:36:38;8.90;;;3.85;;
36651;SDS011;53334;51.976;20.144;2023-11-21T12:39:11;4.70;;;3.58;;
36651;SDS011;53334;51.976;20.144;2023-11-21T12:41:46;10.93;;;3.92;;
36651;SDS011;53334;51.976;20.144;2023-11-21T12:44:20;8.63;;;3.67;;
36651;SDS011;53334;51.976;20.144;2023-11-21T12:46:55;10.20;;;3.55;;
36651;SDS011;53334;51.976;20.144;2023-11-21T12:49:28;12.15;;;3.97;;
36651;SDS011;53334;51.976;20.144;2023-11-21T12:52:04;9.02;;;4.28;;
36651;SDS011;53334;51.976;20.144;2023-11-21T12:54:38;5.10;;;3.85;;
36651;SDS011;53334;51.976;20.144;2023-11-21T12:57:11;7.00;;;4.57;;
36651;SDS011;53334;51.976;20.144;2023-11-21T12:59:46;10.68;;;4.20;;
36651;SDS011;53334;51.976;20.144;2023-11-21T13:02:20;27.60;;;4.30;;
36651;SDS011;53334;51.976;20.144;2023-11-21T13:04:54;10.50;;;3.92;;
36651;SDS011;53334;51.976;20.144;2023-11-21T13:07:29;8.57;;;4.10;;
36651;SDS011;53334;51.976;20.144;2023-11-21T13:10:18;4.35;;;3.42;;
36651;SDS011;53334;51.976;20.144;2023-11-21T13:12:51;11.65;;;4.43;;
36651;SDS011;53334;51.976;20.144;2023-11-21T13:15:27;12.63;;;3.95;;
36651;SDS011;53334;51.976;20.144;2023-11-21T13:18:03;17.13;;;4.47;;
36651;SDS011;53334;51.976;20.144;2023-11-21T13:20:36;10.35;;;3.97;;
36651;SDS011;53334;51.976;20.144;2023-11-21T13:23:10;10.48;;;4.38;;
36651;SDS011;53334;51.976;20.144;2023-11-21T13:25:44;9.70;;;3.42;;
36651;SDS011;53334;51.976;20.144;2023-11-21T13:28:28;7.78;;;4.35;;
36651;SDS011;53334;51.976;20.144;2023-11-21T13:31:06;6.63;;;4.05;;
36651;SDS011;53334;51.976;20.144;2023-11-21T13:33:53;15.50;;;3.92;;
36651;SDS011;53334;51.976;20.144;2023-11-21T13:36:36;16.52;;;4.18;;
36651;SDS011;53334;51.976;20.144;2023-11-21T13:39:09;15.73;;;4.13;;
36651;SDS011;53334;51.976;20.144;2023-11-21T13:41:47;6.03;;;3.97;;
36651;SDS011;53334;51.976;20.144;2023-11-21T13:44:26;13.52;;;4.60;;
36651;SDS011;53334;51.976;20.144;2023-11-21T13:47:07;6.60;;;4.18;;
36651;SDS011;53334;51.976;20.144;2023-11-21T13:49:40;4.25;;;3.70;;
36651;SDS011;53334;51.976;20.144;2023-11-21T13:52:14;9.32;;;4.28;;
36651;SDS011;53334;51.976;20.144;2023-11-21T13:54:48;9.18;;;4.30;;
36651;SDS011;53334;51.976;20.144;2023-11-21T13:57:22;10.15;;;4.40;;
36651;SDS011;53334;51.976;20.144;2023-11-21T13:59:55;10.27;;;4.30;;
36651;SDS011;53334;51.976;20.144;2023-11-21T14:02:31;14.27;;;4.60;;
36651;SDS011;53334;51.976;20.144;2023-11-21T14:05:11;5.47;;;3.97;;
36651;SDS011;53334;51.976;20.144;2023-11-21T14:07:45;11.30;;;4.13;;
36651;SDS011;53334;51.976;20.144;2023-11-21T14:10:20;8.60;;;4.00;;
36651;SDS011;53334;51.976;20.144;2023-11-21T14:12:55;5.90;;;4.00;;
36651;SDS011;53334;51.976;20.144;2023-11-21T14:15:30;8.43;;;4.25;;
36651;SDS011;53334;51.976;20.144;2023-11-21T14:18:05;14.50;;;4.18;;
36651;SDS011;53334;51.976;20.144;2023-11-21T14:20:41;9.82;;;4.50;;
36651;SDS011;53334;51.976;20.144;2023-11-21T14:25:49;7.55;;;4.55;;
36651;SDS011;53334;51.976;20.144;2023-11-21T14:30:56;9.07;;;4.55;;
36651;SDS011;53334;51.976;20.144;2023-11-21T14:33:30;9.93;;;4.35;;
36651;SDS011;53334;51.976;20.144;2023-11-21T14:36:05;10.98;;;5.28;;
36651;SDS011;53334;51.976;20.144;2023-11-21T14:38:39;7.00;;;4.47;;
36651;SDS011;53334;51.976;20.144;2023-11-21T14:41:13;7.00;;;4.10;;
36651;SDS011;53334;51.976;20.144;2023-11-21T14:43:47;8.40;;;4.70;;
36651;SDS011;53334;51.976;20.144;2023-11-21T14:48:56;11.27;;;4.88;;
36651;SDS011;53334;51.976;20.144;2023-11-21T14:51:38;13.38;;;5.43;;
36651;SDS011;53334;51.976;20.144;2023-11-21T14:54:31;5.03;;;4.15;;
36651;SDS011;53334;51.976;20.144;2023-11-21T14:57:16;7.70;;;3.88;;
36651;SDS011;53334;51.976;20.144;2023-11-21T14:59:50;7.47;;;4.40;;
36651;SDS011;53334;51.976;20.144;2023-11-21T15:02:23;11.73;;;5.03;;
36651;SDS011;53334;51.976;20.144;2023-11-21T15:05:18;10.15;;;4.18;;
36651;SDS011;53334;51.976;20.144;2023-11-21T15:07:52;7.95;;;4.15;;
36651;SDS011;53334;51.976;20.144;2023-11-21T15:10:27;14.15;;;4.18;;
36651;SDS011;53334;51.976;20.144;2023-11-21T15:13:09;6.57;;;4.07;;
36651;SDS011;53334;51.976;20.144;2023-11-21T15:15:42;9.07;;;4.75;;
36651;SDS011;53334;51.976;20.144;2023-11-21T15:18:15;13.98;;;3.55;;
36651;SDS011;53334;51.976;20.144;2023-11-21T15:20:50;6.05;;;3.97;;
36651;SDS011;53334;51.976;20.144;2023-11-21T15:23:23;10.00;;;4.25;;
36651;SDS011;53334;51.976;20.144;2023-11-21T15:25:59;8.73;;;4.13;;
36651;SDS011;53334;51.976;20.144;2023-11-21T15:28:35;6.57;;;4.60;;